sensor_id;sensor_type;location;lat;lon;timestamp;P1;durP1;ratioP1;P2;durP2;ratioP2
33152;SDS011;19509;43.862;26.176;2022-12-07T00:01:38;40.57;;;12.20;;
33152;SDS011;19509;43.862;26.176;2022-12-07T00:04:06;23.03;;;9.57;;
33152;SDS011;19509;43.862;26.176;2022-12-07T00:08:59;19.60;;;7.10;;
33152;SDS011;19509;43.862;26.176;2022-12-07T00:11:25;25.10;;;8.80;;
33152;SDS011;19509;43.862;26.176;2022-12-07T00:13:52;22.97;;;9.07;;
33152;SDS011;19509;43.862;26.176;2022-12-07T00:16:19;30.77;;;9.70;;
33152;SDS011;19509;43.862;26.176;2022-12-07T00:18:46;35.87;;;12.63;;
33152;SDS011;19509;43.862;26.176;2022-12-07T00:21:15;10.33;;;7.10;;
33152;SDS011;19509;43.862;26.176;2022-12-07T00:23:43;26.13;;;7.20;;
33152;SDS011;19509;43.862;26.176;2022-12-07T00:26:28;18.40;;;7.67;;
33152;SDS011;19509;43.862;26.176;2022-12-07T00:28:57;15.20;;;7.80;;
33152;SDS011;19509;43.862;26.176;2022-12-07T00:31:28;9.73;;;5.97;;
33152;SDS011;19509;43.862;26.176;2022-12-07T00:33:57;16.73;;;7.90;;
33152;SDS011;19509;43.862;26.176;2022-12-07T00:36:23;19.00;;;8.00;;
33152;SDS011;19509;43.862;26.176;2022-12-07T00:38:49;11.70;;;7.27;;
33152;SDS011;19509;43.862;26.176;2022-12-07T00:41:16;23.20;;;8.97;;
33152;SDS011;19509;43.862;26.176;2022-12-07T00:43:43;23.13;;;7.53;;
33152;SDS011;19509;43.862;26.176;2022-12-07T00:46:10;15.73;;;6.90;;
33152;SDS011;19509;43.862;26.176;2022-12-07T00:48:36;23.70;;;7.83;;
33152;SDS011;19509;43.862;26.176;2022-12-07T00:51:02;25.57;;;8.90;;
33152;SDS011;19509;43.862;26.176;2022-12-07T00:53:28;17.80;;;6.67;;
33152;SDS011;19509;43.862;26.176;2022-12-07T00:55:54;8.83;;;5.37;;
33152;SDS011;19509;43.862;26.176;2022-12-07T00:58:21;12.83;;;6.83;;
33152;SDS011;19509;43.862;26.176;2022-12-07T01:00:47;10.13;;;6.10;;
33152;SDS011;19509;43.862;26.176;2022-12-07T01:03:13;12.27;;;6.67;;
33152;SDS011;19509;43.862;26.176;2022-12-07T01:05:40;6.70;;;4.90;;
33152;SDS011;19509;43.862;26.176;2022-12-07T01:08:13;8.07;;;4.90;;
33152;SDS011;19509;43.862;26.176;2022-12-07T01:10:38;9.53;;;6.00;;
33152;SDS011;19509;43.862;26.176;2022-12-07T01:13:04;9.03;;;5.10;;
33152;SDS011;19509;43.862;26.176;2022-12-07T01:15:29;9.17;;;6.40;;
33152;SDS011;19509;43.862;26.176;2022-12-07T01:17:55;14.63;;;6.20;;
33152;SDS011;19509;43.862;26.176;2022-12-07T01:20:20;13.73;;;6.80;;
33152;SDS011;19509;43.862;26.176;2022-12-07T01:22:45;17.17;;;6.43;;
33152;SDS011;19509;43.862;26.176;2022-12-07T01:25:11;16.97;;;5.80;;
33152;SDS011;19509;43.862;26.176;2022-12-07T01:27:37;17.60;;;6.50;;
33152;SDS011;19509;43.862;26.176;2022-12-07T01:30:04;11.03;;;6.07;;
33152;SDS011;19509;43.862;26.176;2022-12-07T01:32:31;8.87;;;5.00;;
33152;SDS011;19509;43.862;26.176;2022-12-07T01:34:57;12.20;;;6.73;;
33152;SDS011;19509;43.862;26.176;2022-12-07T01:37:22;23.43;;;7.37;;
33152;SDS011;19509;43.862;26.176;2022-12-07T01:39:48;8.83;;;5.77;;
33152;SDS011;19509;43.862;26.176;2022-12-07T01:42:14;21.10;;;6.60;;
33152;SDS011;19509;43.862;26.176;2022-12-07T01:47:39;16.77;;;6.00;;
33152;SDS011;19509;43.862;26.176;2022-12-07T01:50:06;23.60;;;9.03;;
33152;SDS011;19509;43.862;26.176;2022-12-07T01:52:32;23.00;;;8.63;;
33152;SDS011;19509;43.862;26.176;2022-12-07T01:55:01;22.23;;;9.13;;
33152;SDS011;19509;43.862;26.176;2022-12-07T01:57:40;17.33;;;8.30;;
33152;SDS011;19509;43.862;26.176;2022-12-07T02:00:08;20.63;;;8.37;;
33152;SDS011;19509;43.862;26.176;2022-12-07T02:02:37;27.60;;;9.53;;
33152;SDS011;19509;43.862;26.176;2022-12-07T02:05:07;33.40;;;11.50;;
33152;SDS011;19509;43.862;26.176;2022-12-07T02:07:34;46.10;;;14.30;;
33152;SDS011;19509;43.862;26.176;2022-12-07T02:10:19;37.80;;;13.20;;
33152;SDS011;19509;43.862;26.176;2022-12-07T02:12:47;50.27;;;14.17;;
33152;SDS011;19509;43.862;26.176;2022-12-07T02:15:16;21.43;;;9.70;;
33152;SDS011;19509;43.862;26.176;2022-12-07T02:20:26;15.97;;;6.77;;
33152;SDS011;19509;43.862;26.176;2022-12-07T02:29:01;18.73;;;7.20;;
33152;SDS011;19509;43.862;26.176;2022-12-07T02:32:10;11.67;;;6.80;;
33152;SDS011;19509;43.862;26.176;2022-12-07T02:37:18;6.87;;;5.43;;
33152;SDS011;19509;43.862;26.176;2022-12-07T02:39:59;6.13;;;5.40;;
33152;SDS011;19509;43.862;26.176;2022-12-07T02:42:34;5.50;;;4.80;;
33152;SDS011;19509;43.862;26.176;2022-12-07T02:45:04;4.90;;;4.60;;
33152;SDS011;19509;43.862;26.176;2022-12-07T02:47:31;5.13;;;4.73;;
33152;SDS011;19509;43.862;26.176;2022-12-07T02:49:59;4.13;;;3.83;;
33152;SDS011;19509;43.862;26.176;2022-12-07T02:52:24;4.00;;;3.80;;
33152;SDS011;19509;43.862;26.176;2022-12-07T02:54:50;4.13;;;3.83;;
33152;SDS011;19509;43.862;26.176;2022-12-07T02:59:55;4.40;;;4.20;;
33152;SDS011;19509;43.862;26.176;2022-12-07T03:05:54;4.10;;;3.83;;
33152;SDS011;19509;43.862;26.176;2022-12-07T03:08:58;3.20;;;3.10;;
33152;SDS011;19509;43.862;26.176;2022-12-07T03:11:52;3.40;;;3.30;;
33152;SDS011;19509;43.862;26.176;2022-12-07T03:14:33;3.50;;;3.40;;
33152;SDS011;19509;43.862;26.176;2022-12-07T03:17:11;4.00;;;3.77;;
33152;SDS011;19509;43.862;26.176;2022-12-07T03:19:40;4.50;;;4.20;;
33152;SDS011;19509;43.862;26.176;2022-12-07T03:22:08;5.33;;;4.37;;
33152;SDS011;19509;43.862;26.176;2022-12-07T03:24:38;4.30;;;4.00;;
33152;SDS011;19509;43.862;26.176;2022-12-07T03:27:22;4.83;;;4.43;;
33152;SDS011;19509;43.862;26.176;2022-12-07T03:29:59;4.03;;;3.83;;
33152;SDS011;19509;43.862;26.176;2022-12-07T03:32:33;3.90;;;3.70;;
33152;SDS011;19509;43.862;26.176;2022-12-07T03:35:03;3.97;;;3.77;;
33152;SDS011;19509;43.862;26.176;2022-12-07T03:37:38;3.90;;;3.70;;
33152;SDS011;19509;43.862;26.176;2022-12-07T03:40:12;3.57;;;3.30;;
33152;SDS011;19509;43.862;26.176;2022-12-07T03:42:39;3.70;;;3.50;;
33152;SDS011;19509;43.862;26.176;2022-12-07T03:45:04;3.97;;;3.77;;
33152;SDS011;19509;43.862;26.176;2022-12-07T03:47:33;3.90;;;3.70;;
33152;SDS011;19509;43.862;26.176;2022-12-07T03:50:06;3.33;;;3.13;;
33152;SDS011;19509;43.862;26.176;2022-12-07T03:55:28;3.20;;;3.10;;
33152;SDS011;19509;43.862;26.176;2022-12-07T03:57:58;3.00;;;2.90;;
33152;SDS011;19509;43.862;26.176;2022-12-07T04:00:27;3.10;;;3.00;;
33152;SDS011;19509;43.862;26.176;2022-12-07T04:02:54;2.67;;;2.57;;
33152;SDS011;19509;43.862;26.176;2022-12-07T04:05:20;2.40;;;2.40;;
33152;SDS011;19509;43.862;26.176;2022-12-07T04:07:46;2.30;;;2.30;;
33152;SDS011;19509;43.862;26.176;2022-12-07T04:10:12;2.30;;;2.30;;
33152;SDS011;19509;43.862;26.176;2022-12-07T04:12:37;2.97;;;2.87;;
33152;SDS011;19509;43.862;26.176;2022-12-07T04:15:03;2.33;;;2.33;;
33152;SDS011;19509;43.862;26.176;2022-12-07T04:17:29;2.53;;;2.53;;
33152;SDS011;19509;43.862;26.176;2022-12-07T04:19:55;2.93;;;2.83;;
33152;SDS011;19509;43.862;26.176;2022-12-07T04:22:20;2.87;;;2.77;;
33152;SDS011;19509;43.862;26.176;2022-12-07T04:24:46;2.70;;;2.60;;
33152;SDS011;19509;43.862;26.176;2022-12-07T04:27:11;2.83;;;2.73;;
33152;SDS011;19509;43.862;26.176;2022-12-07T04:29:37;4.07;;;3.87;;
33152;SDS011;19509;43.862;26.176;2022-12-07T04:32:02;4.23;;;4.00;;
33152;SDS011;19509;43.862;26.176;2022-12-07T04:34:27;4.27;;;3.80;;
33152;SDS011;19509;43.862;26.176;2022-12-07T04:36:53;3.73;;;3.53;;
33152;SDS011;19509;43.862;26.176;2022-12-07T04:41:49;3.77;;;3.63;;
33152;SDS011;19509;43.862;26.176;2022-12-07T04:44:15;3.70;;;3.50;;
33152;SDS011;19509;43.862;26.176;2022-12-07T04:46:42;3.23;;;3.13;;
33152;SDS011;19509;43.862;26.176;2022-12-07T04:49:07;3.70;;;3.50;;
33152;SDS011;19509;43.862;26.176;2022-12-07T04:51:33;3.30;;;3.20;;
33152;SDS011;19509;43.862;26.176;2022-12-07T04:53:58;3.10;;;3.00;;
33152;SDS011;19509;43.862;26.176;2022-12-07T04:56:24;2.77;;;2.67;;
33152;SDS011;19509;43.862;26.176;2022-12-07T04:58:50;3.23;;;3.13;;
33152;SDS011;19509;43.862;26.176;2022-12-07T05:01:17;3.10;;;3.00;;
33152;SDS011;19509;43.862;26.176;2022-12-07T05:03:43;3.50;;;3.40;;
33152;SDS011;19509;43.862;26.176;2022-12-07T05:06:09;3.53;;;3.43;;
33152;SDS011;19509;43.862;26.176;2022-12-07T05:08:35;3.40;;;3.30;;
33152;SDS011;19509;43.862;26.176;2022-12-07T05:11:01;4.30;;;3.83;;
33152;SDS011;19509;43.862;26.176;2022-12-07T05:13:29;4.50;;;4.20;;
33152;SDS011;19509;43.862;26.176;2022-12-07T05:15:55;4.03;;;3.83;;
33152;SDS011;19509;43.862;26.176;2022-12-07T05:18:20;4.23;;;4.03;;
33152;SDS011;19509;43.862;26.176;2022-12-07T05:20:46;5.10;;;4.80;;
33152;SDS011;19509;43.862;26.176;2022-12-07T05:23:11;4.00;;;3.80;;
33152;SDS011;19509;43.862;26.176;2022-12-07T05:25:37;3.70;;;3.60;;
33152;SDS011;19509;43.862;26.176;2022-12-07T05:28:03;3.70;;;3.60;;
33152;SDS011;19509;43.862;26.176;2022-12-07T05:30:29;3.93;;;3.73;;
33152;SDS011;19509;43.862;26.176;2022-12-07T05:32:55;4.03;;;3.80;;
33152;SDS011;19509;43.862;26.176;2022-12-07T05:35:20;4.23;;;4.03;;
33152;SDS011;19509;43.862;26.176;2022-12-07T05:37:46;4.80;;;4.50;;
33152;SDS011;19509;43.862;26.176;2022-12-07T05:40:13;5.63;;;5.23;;
33152;SDS011;19509;43.862;26.176;2022-12-07T05:42:39;7.77;;;7.37;;
33152;SDS011;19509;43.862;26.176;2022-12-07T05:45:05;3.67;;;3.57;;
33152;SDS011;19509;43.862;26.176;2022-12-07T05:47:31;4.40;;;4.20;;
33152;SDS011;19509;43.862;26.176;2022-12-07T05:49:57;4.10;;;4.00;;
33152;SDS011;19509;43.862;26.176;2022-12-07T05:52:22;4.10;;;4.00;;
33152;SDS011;19509;43.862;26.176;2022-12-07T05:54:48;4.10;;;3.90;;
33152;SDS011;19509;43.862;26.176;2022-12-07T05:57:13;3.70;;;3.60;;
33152;SDS011;19509;43.862;26.176;2022-12-07T05:59:38;4.30;;;4.10;;
33152;SDS011;19509;43.862;26.176;2022-12-07T06:02:05;4.07;;;3.97;;
33152;SDS011;19509;43.862;26.176;2022-12-07T06:04:34;4.00;;;3.90;;
33152;SDS011;19509;43.862;26.176;2022-12-07T06:07:04;3.87;;;3.77;;
33152;SDS011;19509;43.862;26.176;2022-12-07T06:09:30;3.60;;;3.50;;
33152;SDS011;19509;43.862;26.176;2022-12-07T06:11:56;3.70;;;3.60;;
33152;SDS011;19509;43.862;26.176;2022-12-07T06:14:40;3.70;;;3.60;;
33152;SDS011;19509;43.862;26.176;2022-12-07T06:17:06;3.33;;;3.23;;
33152;SDS011;19509;43.862;26.176;2022-12-07T06:19:31;3.50;;;3.40;;
33152;SDS011;19509;43.862;26.176;2022-12-07T06:21:57;3.13;;;3.03;;
33152;SDS011;19509;43.862;26.176;2022-12-07T06:24:23;3.47;;;3.37;;
33152;SDS011;19509;43.862;26.176;2022-12-07T06:26:49;3.53;;;3.43;;
33152;SDS011;19509;43.862;26.176;2022-12-07T06:29:15;3.60;;;3.50;;
33152;SDS011;19509;43.862;26.176;2022-12-07T06:31:42;8.10;;;7.70;;
33152;SDS011;19509;43.862;26.176;2022-12-07T06:34:11;4.40;;;4.30;;
33152;SDS011;19509;43.862;26.176;2022-12-07T06:36:39;3.70;;;3.60;;
33152;SDS011;19509;43.862;26.176;2022-12-07T06:39:05;3.10;;;3.00;;
33152;SDS011;19509;43.862;26.176;2022-12-07T06:41:31;3.17;;;3.07;;
33152;SDS011;19509;43.862;26.176;2022-12-07T06:43:57;3.60;;;3.50;;
33152;SDS011;19509;43.862;26.176;2022-12-07T06:46:23;3.70;;;3.60;;
33152;SDS011;19509;43.862;26.176;2022-12-07T06:48:49;9.37;;;8.87;;
33152;SDS011;19509;43.862;26.176;2022-12-07T06:51:14;24.33;;;22.23;;
33152;SDS011;19509;43.862;26.176;2022-12-07T06:53:40;5.40;;;5.20;;
33152;SDS011;19509;43.862;26.176;2022-12-07T06:56:05;3.53;;;3.43;;
33152;SDS011;19509;43.862;26.176;2022-12-07T06:58:31;2.90;;;2.90;;
33152;SDS011;19509;43.862;26.176;2022-12-07T07:00:56;9.90;;;9.30;;
33152;SDS011;19509;43.862;26.176;2022-12-07T07:03:22;5.70;;;5.50;;
33152;SDS011;19509;43.862;26.176;2022-12-07T07:05:47;2.90;;;2.80;;
33152;SDS011;19509;43.862;26.176;2022-12-07T07:08:13;3.27;;;3.17;;
33152;SDS011;19509;43.862;26.176;2022-12-07T07:10:39;3.13;;;3.03;;
33152;SDS011;19509;43.862;26.176;2022-12-07T07:13:04;3.43;;;3.33;;
33152;SDS011;19509;43.862;26.176;2022-12-07T07:15:30;3.27;;;3.17;;
33152;SDS011;19509;43.862;26.176;2022-12-07T07:17:57;3.20;;;3.10;;
33152;SDS011;19509;43.862;26.176;2022-12-07T07:20:22;3.30;;;3.20;;
33152;SDS011;19509;43.862;26.176;2022-12-07T07:22:48;3.00;;;2.90;;
33152;SDS011;19509;43.862;26.176;2022-12-07T07:25:14;3.03;;;2.93;;
33152;SDS011;19509;43.862;26.176;2022-12-07T07:27:40;3.40;;;3.30;;
33152;SDS011;19509;43.862;26.176;2022-12-07T07:30:06;3.83;;;3.73;;
33152;SDS011;19509;43.862;26.176;2022-12-07T07:32:32;3.20;;;3.10;;
33152;SDS011;19509;43.862;26.176;2022-12-07T07:34:57;4.10;;;4.00;;
33152;SDS011;19509;43.862;26.176;2022-12-07T07:37:23;4.20;;;4.10;;
33152;SDS011;19509;43.862;26.176;2022-12-07T07:39:48;3.50;;;3.40;;
33152;SDS011;19509;43.862;26.176;2022-12-07T07:42:14;3.03;;;2.93;;
33152;SDS011;19509;43.862;26.176;2022-12-07T07:44:40;2.63;;;2.63;;
33152;SDS011;19509;43.862;26.176;2022-12-07T07:47:05;2.53;;;2.43;;
33152;SDS011;19509;43.862;26.176;2022-12-07T07:49:31;2.97;;;2.87;;
33152;SDS011;19509;43.862;26.176;2022-12-07T07:51:56;3.67;;;3.57;;
33152;SDS011;19509;43.862;26.176;2022-12-07T07:54:22;3.47;;;3.37;;
33152;SDS011;19509;43.862;26.176;2022-12-07T07:56:47;2.60;;;2.60;;
33152;SDS011;19509;43.862;26.176;2022-12-07T07:59:12;2.20;;;2.20;;
33152;SDS011;19509;43.862;26.176;2022-12-07T08:01:39;2.33;;;2.33;;
33152;SDS011;19509;43.862;26.176;2022-12-07T08:04:05;1.97;;;1.97;;
33152;SDS011;19509;43.862;26.176;2022-12-07T08:06:30;2.50;;;2.40;;
33152;SDS011;19509;43.862;26.176;2022-12-07T08:08:55;2.30;;;2.30;;
33152;SDS011;19509;43.862;26.176;2022-12-07T08:11:23;2.60;;;2.60;;
33152;SDS011;19509;43.862;26.176;2022-12-07T08:13:48;2.83;;;2.73;;
33152;SDS011;19509;43.862;26.176;2022-12-07T08:16:14;2.50;;;2.50;;
33152;SDS011;19509;43.862;26.176;2022-12-07T08:18:40;2.60;;;2.50;;
33152;SDS011;19509;43.862;26.176;2022-12-07T08:21:06;2.60;;;2.50;;
33152;SDS011;19509;43.862;26.176;2022-12-07T08:23:34;2.20;;;2.20;;
33152;SDS011;19509;43.862;26.176;2022-12-07T08:26:03;2.57;;;2.47;;
33152;SDS011;19509;43.862;26.176;2022-12-07T08:28:30;2.30;;;2.30;;
33152;SDS011;19509;43.862;26.176;2022-12-07T08:30:59;2.40;;;2.40;;
33152;SDS011;19509;43.862;26.176;2022-12-07T08:33:26;2.30;;;2.30;;
33152;SDS011;19509;43.862;26.176;2022-12-07T08:35:52;2.57;;;2.57;;
33152;SDS011;19509;43.862;26.176;2022-12-07T08:38:17;2.20;;;2.20;;
33152;SDS011;19509;43.862;26.176;2022-12-07T08:40:43;2.33;;;2.33;;
33152;SDS011;19509;43.862;26.176;2022-12-07T08:43:08;2.10;;;2.10;;
33152;SDS011;19509;43.862;26.176;2022-12-07T08:45:34;2.10;;;2.10;;
33152;SDS011;19509;43.862;26.176;2022-12-07T08:48:06;2.30;;;2.30;;
33152;SDS011;19509;43.862;26.176;2022-12-07T08:50:35;2.43;;;2.43;;
33152;SDS011;19509;43.862;26.176;2022-12-07T08:53:02;2.10;;;2.10;;
33152;SDS011;19509;43.862;26.176;2022-12-07T08:55:29;2.40;;;2.40;;
33152;SDS011;19509;43.862;26.176;2022-12-07T08:57:56;2.30;;;2.30;;
33152;SDS011;19509;43.862;26.176;2022-12-07T09:00:24;2.40;;;2.30;;
33152;SDS011;19509;43.862;26.176;2022-12-07T09:02:51;2.30;;;2.30;;
33152;SDS011;19509;43.862;26.176;2022-12-07T09:05:16;2.27;;;2.27;;
33152;SDS011;19509;43.862;26.176;2022-12-07T09:07:46;2.43;;;2.43;;
33152;SDS011;19509;43.862;26.176;2022-12-07T09:10:15;2.50;;;2.50;;
33152;SDS011;19509;43.862;26.176;2022-12-07T09:12:40;2.50;;;2.50;;
33152;SDS011;19509;43.862;26.176;2022-12-07T09:15:06;2.20;;;2.20;;
33152;SDS011;19509;43.862;26.176;2022-12-07T09:17:33;2.40;;;2.40;;
33152;SDS011;19509;43.862;26.176;2022-12-07T09:19:59;2.30;;;2.30;;
33152;SDS011;19509;43.862;26.176;2022-12-07T09:22:28;2.10;;;2.10;;
33152;SDS011;19509;43.862;26.176;2022-12-07T09:24:55;2.10;;;2.10;;
33152;SDS011;19509;43.862;26.176;2022-12-07T09:27:20;2.10;;;2.10;;
33152;SDS011;19509;43.862;26.176;2022-12-07T09:29:46;1.80;;;1.80;;
33152;SDS011;19509;43.862;26.176;2022-12-07T09:32:11;2.10;;;2.10;;
33152;SDS011;19509;43.862;26.176;2022-12-07T09:34:37;2.10;;;2.10;;
33152;SDS011;19509;43.862;26.176;2022-12-07T09:37:03;2.00;;;2.00;;
33152;SDS011;19509;43.862;26.176;2022-12-07T09:39:29;2.10;;;2.10;;
33152;SDS011;19509;43.862;26.176;2022-12-07T09:41:54;2.10;;;2.10;;
33152;SDS011;19509;43.862;26.176;2022-12-07T09:44:23;2.20;;;2.20;;
33152;SDS011;19509;43.862;26.176;2022-12-07T09:46:51;1.83;;;1.83;;
33152;SDS011;19509;43.862;26.176;2022-12-07T09:49:19;1.70;;;1.70;;
33152;SDS011;19509;43.862;26.176;2022-12-07T09:51:47;1.60;;;1.60;;
33152;SDS011;19509;43.862;26.176;2022-12-07T09:54:24;1.70;;;1.70;;
33152;SDS011;19509;43.862;26.176;2022-12-07T09:56:49;1.70;;;1.70;;
33152;SDS011;19509;43.862;26.176;2022-12-07T09:59:17;1.90;;;1.90;;
33152;SDS011;19509;43.862;26.176;2022-12-07T10:01:44;1.43;;;1.43;;
33152;SDS011;19509;43.862;26.176;2022-12-07T10:06:46;1.53;;;1.53;;
33152;SDS011;19509;43.862;26.176;2022-12-07T10:09:13;1.77;;;1.77;;
33152;SDS011;19509;43.862;26.176;2022-12-07T10:14:30;1.80;;;1.80;;
33152;SDS011;19509;43.862;26.176;2022-12-07T10:16:57;2.07;;;2.07;;
33152;SDS011;19509;43.862;26.176;2022-12-07T10:22:08;1.70;;;1.70;;
33152;SDS011;19509;43.862;26.176;2022-12-07T10:24:39;1.80;;;1.80;;
33152;SDS011;19509;43.862;26.176;2022-12-07T10:27:21;1.90;;;1.90;;
33152;SDS011;19509;43.862;26.176;2022-12-07T10:29:51;1.83;;;1.83;;
33152;SDS011;19509;43.862;26.176;2022-12-07T10:34:43;2.00;;;2.00;;
33152;SDS011;19509;43.862;26.176;2022-12-07T10:39:45;2.40;;;2.30;;
33152;SDS011;19509;43.862;26.176;2022-12-07T10:48:01;2.47;;;2.47;;
33152;SDS011;19509;43.862;26.176;2022-12-07T10:50:42;2.43;;;2.43;;
33152;SDS011;19509;43.862;26.176;2022-12-07T11:01:48;2.20;;;2.20;;
33152;SDS011;19509;43.862;26.176;2022-12-07T11:04:40;2.27;;;2.27;;
33152;SDS011;19509;43.862;26.176;2022-12-07T11:15:33;2.00;;;2.00;;
33152;SDS011;19509;43.862;26.176;2022-12-07T11:20:52;2.13;;;2.13;;
33152;SDS011;19509;43.862;26.176;2022-12-07T11:29:03;2.00;;;2.00;;
33152;SDS011;19509;43.862;26.176;2022-12-07T11:31:52;2.30;;;2.30;;
33152;SDS011;19509;43.862;26.176;2022-12-07T11:34:39;2.27;;;2.27;;
33152;SDS011;19509;43.862;26.176;2022-12-07T11:37:13;2.10;;;2.10;;
33152;SDS011;19509;43.862;26.176;2022-12-07T11:39:50;2.10;;;2.07;;
33152;SDS011;19509;43.862;26.176;2022-12-07T11:42:22;2.40;;;2.40;;
33152;SDS011;19509;43.862;26.176;2022-12-07T11:55:54;2.50;;;2.50;;
33152;SDS011;19509;43.862;26.176;2022-12-07T12:01:08;2.50;;;2.50;;
33152;SDS011;19509;43.862;26.176;2022-12-07T12:03:43;2.60;;;2.60;;
33152;SDS011;19509;43.862;26.176;2022-12-07T12:06:11;2.70;;;2.70;;
33152;SDS011;19509;43.862;26.176;2022-12-07T12:09:00;2.63;;;2.63;;
33152;SDS011;19509;43.862;26.176;2022-12-07T12:17:14;2.90;;;2.70;;
33152;SDS011;19509;43.862;26.176;2022-12-07T12:22:33;2.63;;;2.63;;
33152;SDS011;19509;43.862;26.176;2022-12-07T12:25:03;3.07;;;2.97;;
33152;SDS011;19509;43.862;26.176;2022-12-07T12:27:32;2.40;;;2.40;;
33152;SDS011;19509;43.862;26.176;2022-12-07T12:30:01;2.63;;;2.63;;
33152;SDS011;19509;43.862;26.176;2022-12-07T12:32:38;2.83;;;2.83;;
33152;SDS011;19509;43.862;26.176;2022-12-07T12:40:51;3.10;;;3.00;;
33152;SDS011;19509;43.862;26.176;2022-12-07T12:57:34;3.13;;;2.93;;
33152;SDS011;19509;43.862;26.176;2022-12-07T13:00:02;2.70;;;2.70;;
33152;SDS011;19509;43.862;26.176;2022-12-07T13:02:48;2.80;;;2.80;;
33152;SDS011;19509;43.862;26.176;2022-12-07T13:15:53;2.70;;;2.70;;
33152;SDS011;19509;43.862;26.176;2022-12-07T13:18:39;3.07;;;2.97;;
33152;SDS011;19509;43.862;26.176;2022-12-07T13:23:37;3.40;;;3.23;;
33152;SDS011;19509;43.862;26.176;2022-12-07T13:36:59;3.20;;;3.10;;
33152;SDS011;19509;43.862;26.176;2022-12-07T13:39:27;3.70;;;3.60;;
33152;SDS011;19509;43.862;26.176;2022-12-07T13:41:54;3.33;;;3.27;;
33152;SDS011;19509;43.862;26.176;2022-12-07T13:44:22;3.40;;;3.30;;
33152;SDS011;19509;43.862;26.176;2022-12-07T13:46:50;3.50;;;3.40;;
33152;SDS011;19509;43.862;26.176;2022-12-07T13:49:27;3.03;;;2.93;;
33152;SDS011;19509;43.862;26.176;2022-12-07T13:51:55;3.53;;;3.43;;
33152;SDS011;19509;43.862;26.176;2022-12-07T13:54:43;2.90;;;2.90;;
33152;SDS011;19509;43.862;26.176;2022-12-07T13:57:10;3.27;;;3.17;;
33152;SDS011;19509;43.862;26.176;2022-12-07T13:59:35;3.43;;;3.33;;
33152;SDS011;19509;43.862;26.176;2022-12-07T14:02:02;3.10;;;3.10;;
33152;SDS011;19509;43.862;26.176;2022-12-07T14:04:42;2.90;;;2.80;;
33152;SDS011;19509;43.862;26.176;2022-12-07T14:07:22;3.43;;;3.33;;
33152;SDS011;19509;43.862;26.176;2022-12-07T14:09:58;3.60;;;3.50;;
33152;SDS011;19509;43.862;26.176;2022-12-07T14:12:26;3.40;;;3.30;;
33152;SDS011;19509;43.862;26.176;2022-12-07T14:14:53;3.20;;;3.10;;
33152;SDS011;19509;43.862;26.176;2022-12-07T14:17:21;3.30;;;3.20;;
33152;SDS011;19509;43.862;26.176;2022-12-07T14:19:50;2.97;;;2.97;;
33152;SDS011;19509;43.862;26.176;2022-12-07T14:24:50;3.20;;;3.10;;
33152;SDS011;19509;43.862;26.176;2022-12-07T14:27:23;3.00;;;2.90;;
33152;SDS011;19509;43.862;26.176;2022-12-07T14:29:55;3.27;;;3.20;;
33152;SDS011;19509;43.862;26.176;2022-12-07T14:32:25;3.43;;;3.33;;
33152;SDS011;19509;43.862;26.176;2022-12-07T14:35:00;3.30;;;3.27;;
33152;SDS011;19509;43.862;26.176;2022-12-07T14:37:35;3.37;;;3.27;;
33152;SDS011;19509;43.862;26.176;2022-12-07T14:40:02;3.67;;;3.20;;
33152;SDS011;19509;43.862;26.176;2022-12-07T14:42:28;3.10;;;3.10;;
33152;SDS011;19509;43.862;26.176;2022-12-07T14:44:56;3.20;;;3.10;;
33152;SDS011;19509;43.862;26.176;2022-12-07T14:47:22;2.97;;;2.97;;
33152;SDS011;19509;43.862;26.176;2022-12-07T14:49:49;3.27;;;3.17;;
33152;SDS011;19509;43.862;26.176;2022-12-07T14:52:16;3.70;;;3.60;;
33152;SDS011;19509;43.862;26.176;2022-12-07T14:54:45;3.13;;;3.03;;
33152;SDS011;19509;43.862;26.176;2022-12-07T14:57:11;3.63;;;3.53;;
33152;SDS011;19509;43.862;26.176;2022-12-07T14:59:36;3.50;;;3.40;;
33152;SDS011;19509;43.862;26.176;2022-12-07T15:02:02;2.87;;;2.87;;
33152;SDS011;19509;43.862;26.176;2022-12-07T15:04:28;3.40;;;3.30;;
33152;SDS011;19509;43.862;26.176;2022-12-07T15:07:00;3.40;;;3.30;;
33152;SDS011;19509;43.862;26.176;2022-12-07T15:09:27;3.40;;;3.30;;
33152;SDS011;19509;43.862;26.176;2022-12-07T15:11:53;4.00;;;3.90;;
33152;SDS011;19509;43.862;26.176;2022-12-07T15:14:18;3.60;;;3.50;;
33152;SDS011;19509;43.862;26.176;2022-12-07T15:16:44;3.70;;;3.60;;
33152;SDS011;19509;43.862;26.176;2022-12-07T15:19:20;3.60;;;3.50;;
33152;SDS011;19509;43.862;26.176;2022-12-07T15:21:51;6.77;;;6.47;;
33152;SDS011;19509;43.862;26.176;2022-12-07T15:24:16;7.47;;;7.17;;
33152;SDS011;19509;43.862;26.176;2022-12-07T15:26:42;5.00;;;4.90;;
33152;SDS011;19509;43.862;26.176;2022-12-07T15:29:07;4.20;;;4.10;;
33152;SDS011;19509;43.862;26.176;2022-12-07T15:31:33;4.87;;;4.73;;
33152;SDS011;19509;43.862;26.176;2022-12-07T15:33:59;4.70;;;4.60;;
33152;SDS011;19509;43.862;26.176;2022-12-07T15:36:26;4.40;;;4.30;;
33152;SDS011;19509;43.862;26.176;2022-12-07T15:38:53;4.80;;;4.70;;
33152;SDS011;19509;43.862;26.176;2022-12-07T15:41:19;4.20;;;4.10;;
33152;SDS011;19509;43.862;26.176;2022-12-07T15:43:45;4.80;;;4.70;;
33152;SDS011;19509;43.862;26.176;2022-12-07T15:46:33;4.03;;;3.90;;
33152;SDS011;19509;43.862;26.176;2022-12-07T15:49:00;5.10;;;4.90;;
33152;SDS011;19509;43.862;26.176;2022-12-07T15:51:25;4.67;;;4.57;;
33152;SDS011;19509;43.862;26.176;2022-12-07T15:53:52;4.37;;;4.27;;
33152;SDS011;19509;43.862;26.176;2022-12-07T15:56:18;4.30;;;4.20;;
33152;SDS011;19509;43.862;26.176;2022-12-07T15:58:43;4.77;;;4.60;;
33152;SDS011;19509;43.862;26.176;2022-12-07T16:01:09;5.00;;;4.90;;
33152;SDS011;19509;43.862;26.176;2022-12-07T16:03:39;4.43;;;4.33;;
33152;SDS011;19509;43.862;26.176;2022-12-07T16:06:04;4.40;;;4.30;;
33152;SDS011;19509;43.862;26.176;2022-12-07T16:08:30;4.03;;;3.93;;
33152;SDS011;19509;43.862;26.176;2022-12-07T16:10:56;4.70;;;4.50;;
33152;SDS011;19509;43.862;26.176;2022-12-07T16:13:21;4.37;;;4.27;;
33152;SDS011;19509;43.862;26.176;2022-12-07T16:15:47;4.27;;;4.17;;
33152;SDS011;19509;43.862;26.176;2022-12-07T16:18:12;4.20;;;4.10;;
33152;SDS011;19509;43.862;26.176;2022-12-07T16:20:38;4.63;;;4.53;;
33152;SDS011;19509;43.862;26.176;2022-12-07T16:23:03;4.53;;;4.33;;
33152;SDS011;19509;43.862;26.176;2022-12-07T16:25:29;4.83;;;4.63;;
33152;SDS011;19509;43.862;26.176;2022-12-07T16:27:54;4.30;;;4.20;;
33152;SDS011;19509;43.862;26.176;2022-12-07T16:30:20;4.53;;;4.43;;
33152;SDS011;19509;43.862;26.176;2022-12-07T16:32:45;4.50;;;4.30;;
33152;SDS011;19509;43.862;26.176;2022-12-07T16:35:11;4.47;;;4.27;;
33152;SDS011;19509;43.862;26.176;2022-12-07T16:37:37;4.37;;;4.27;;
33152;SDS011;19509;43.862;26.176;2022-12-07T16:40:04;4.47;;;4.37;;
33152;SDS011;19509;43.862;26.176;2022-12-07T16:42:31;4.20;;;4.03;;
33152;SDS011;19509;43.862;26.176;2022-12-07T16:44:57;4.97;;;4.77;;
33152;SDS011;19509;43.862;26.176;2022-12-07T16:47:23;5.87;;;5.57;;
33152;SDS011;19509;43.862;26.176;2022-12-07T16:49:48;4.60;;;4.50;;
33152;SDS011;19509;43.862;26.176;2022-12-07T16:52:13;4.70;;;4.50;;
33152;SDS011;19509;43.862;26.176;2022-12-07T16:54:39;4.27;;;4.10;;
33152;SDS011;19509;43.862;26.176;2022-12-07T16:57:04;4.30;;;4.20;;
33152;SDS011;19509;43.862;26.176;2022-12-07T16:59:30;3.77;;;3.67;;
33152;SDS011;19509;43.862;26.176;2022-12-07T17:01:56;3.70;;;3.60;;